sensor_id;sensor_type;location;lat;lon;timestamp;P1;durP1;ratioP1;P2;durP2;ratioP2
42186;SDS011;27858;51.414;0.018;2023-04-24T04:00:47;20.10;;;10.05;;
42186;SDS011;27858;51.414;0.018;2023-04-24T04:03:14;14.40;;;9.30;;
42186;SDS011;27858;51.414;0.018;2023-04-24T04:05:41;13.73;;;9.05;;
42186;SDS011;27858;51.414;0.018;2023-04-24T04:08:08;13.88;;;9.02;;
42186;SDS011;27858;51.414;0.018;2023-04-24T04:10:34;12.80;;;8.55;;
42186;SDS011;27858;51.414;0.018;2023-04-24T04:13:01;14.27;;;9.45;;
42186;SDS011;27858;51.414;0.018;2023-04-24T04:15:28;16.15;;;9.45;;
42186;SDS011;27858;51.414;0.018;2023-04-24T04:17:55;11.32;;;7.22;;
42186;SDS011;27858;51.414;0.018;2023-04-24T04:20:21;19.42;;;9.18;;
42186;SDS011;27858;51.414;0.018;2023-04-24T04:22:48;13.80;;;9.68;;
42186;SDS011;27858;51.414;0.018;2023-04-24T04:25:15;15.35;;;7.95;;
42186;SDS011;27858;51.414;0.018;2023-04-24T04:27:42;13.07;;;7.97;;
42186;SDS011;27858;51.414;0.018;2023-04-24T04:30:08;18.13;;;9.35;;
42186;SDS011;27858;51.414;0.018;2023-04-24T04:32:36;15.85;;;9.93;;
42186;SDS011;27858;51.414;0.018;2023-04-24T04:35:03;15.68;;;9.07;;
42186;SDS011;27858;51.414;0.018;2023-04-24T04:37:31;12.75;;;8.45;;
42186;SDS011;27858;51.414;0.018;2023-04-24T04:40:02;13.25;;;8.35;;
42186;SDS011;27858;51.414;0.018;2023-04-24T04:42:38;13.57;;;8.95;;
42186;SDS011;27858;51.414;0.018;2023-04-24T04:45:07;15.80;;;9.27;;
42186;SDS011;27858;51.414;0.018;2023-04-24T04:47:35;13.70;;;8.88;;
42186;SDS011;27858;51.414;0.018;2023-04-24T04:50:01;16.33;;;9.05;;
42186;SDS011;27858;51.414;0.018;2023-04-24T04:52:29;12.77;;;8.82;;
42186;SDS011;27858;51.414;0.018;2023-04-24T04:54:56;27.15;;;9.13;;
42186;SDS011;27858;51.414;0.018;2023-04-24T04:57:23;13.50;;;7.60;;
42186;SDS011;27858;51.414;0.018;2023-04-24T04:59:50;17.85;;;9.00;;
42186;SDS011;27858;51.414;0.018;2023-04-24T05:02:17;13.75;;;9.38;;
42186;SDS011;27858;51.414;0.018;2023-04-24T05:04:43;17.75;;;9.15;;
42186;SDS011;27858;51.414;0.018;2023-04-24T05:07:11;13.73;;;10.30;;
42186;SDS011;27858;51.414;0.018;2023-04-24T05:09:38;15.63;;;8.85;;
42186;SDS011;27858;51.414;0.018;2023-04-24T05:12:05;19.20;;;10.50;;
42186;SDS011;27858;51.414;0.018;2023-04-24T05:14:32;17.40;;;9.50;;
42186;SDS011;27858;51.414;0.018;2023-04-24T05:16:59;13.27;;;8.40;;
42186;SDS011;27858;51.414;0.018;2023-04-24T05:19:26;14.90;;;9.38;;
42186;SDS011;27858;51.414;0.018;2023-04-24T05:21:53;14.73;;;9.00;;
42186;SDS011;27858;51.414;0.018;2023-04-24T05:24:19;12.02;;;7.47;;
42186;SDS011;27858;51.414;0.018;2023-04-24T05:26:46;15.13;;;8.98;;
42186;SDS011;27858;51.414;0.018;2023-04-24T05:29:13;16.02;;;8.60;;
42186;SDS011;27858;51.414;0.018;2023-04-24T05:31:40;13.93;;;8.75;;
42186;SDS011;27858;51.414;0.018;2023-04-24T05:34:06;16.88;;;9.55;;
42186;SDS011;27858;51.414;0.018;2023-04-24T05:36:33;10.60;;;7.60;;
42186;SDS011;27858;51.414;0.018;2023-04-24T05:39:00;16.60;;;10.18;;
42186;SDS011;27858;51.414;0.018;2023-04-24T05:41:27;12.95;;;7.28;;
42186;SDS011;27858;51.414;0.018;2023-04-24T05:43:53;14.65;;;9.02;;
42186;SDS011;27858;51.414;0.018;2023-04-24T05:46:20;12.90;;;7.22;;
42186;SDS011;27858;51.414;0.018;2023-04-24T05:48:47;11.80;;;8.88;;
42186;SDS011;27858;51.414;0.018;2023-04-24T05:51:13;14.07;;;9.13;;
42186;SDS011;27858;51.414;0.018;2023-04-24T05:53:40;11.88;;;6.90;;
42186;SDS011;27858;51.414;0.018;2023-04-24T05:56:07;13.02;;;7.60;;
42186;SDS011;27858;51.414;0.018;2023-04-24T05:58:34;9.07;;;6.20;;
42186;SDS011;27858;51.414;0.018;2023-04-24T06:01:00;12.38;;;7.30;;
42186;SDS011;27858;51.414;0.018;2023-04-24T06:03:28;12.00;;;7.43;;
42186;SDS011;27858;51.414;0.018;2023-04-24T06:05:55;13.65;;;7.93;;
42186;SDS011;27858;51.414;0.018;2023-04-24T06:08:22;8.95;;;5.90;;
42186;SDS011;27858;51.414;0.018;2023-04-24T06:10:48;8.55;;;5.03;;
42186;SDS011;27858;51.414;0.018;2023-04-24T06:13:15;10.52;;;5.97;;
42186;SDS011;27858;51.414;0.018;2023-04-24T06:15:43;9.05;;;6.68;;
42186;SDS011;27858;51.414;0.018;2023-04-24T06:18:10;9.38;;;6.13;;
42186;SDS011;27858;51.414;0.018;2023-04-24T06:20:36;10.40;;;6.20;;
42186;SDS011;27858;51.414;0.018;2023-04-24T06:23:03;9.45;;;5.55;;
42186;SDS011;27858;51.414;0.018;2023-04-24T06:25:30;19.85;;;7.03;;
42186;SDS011;27858;51.414;0.018;2023-04-24T06:27:57;10.75;;;5.93;;
42186;SDS011;27858;51.414;0.018;2023-04-24T06:30:24;18.50;;;5.38;;
42186;SDS011;27858;51.414;0.018;2023-04-24T06:32:51;6.85;;;3.88;;
42186;SDS011;27858;51.414;0.018;2023-04-24T06:37:46;5.95;;;2.67;;
42186;SDS011;27858;51.414;0.018;2023-04-24T06:40:13;4.18;;;2.60;;
42186;SDS011;27858;51.414;0.018;2023-04-24T06:42:40;5.72;;;2.53;;
42186;SDS011;27858;51.414;0.018;2023-04-24T06:45:07;12.50;;;3.13;;
42186;SDS011;27858;51.414;0.018;2023-04-24T06:47:34;6.78;;;3.72;;
42186;SDS011;27858;51.414;0.018;2023-04-24T06:50:01;6.00;;;2.78;;
42186;SDS011;27858;51.414;0.018;2023-04-24T06:52:27;4.93;;;2.15;;
42186;SDS011;27858;51.414;0.018;2023-04-24T06:54:59;5.47;;;2.83;;
42186;SDS011;27858;51.414;0.018;2023-04-24T06:57:27;6.35;;;2.10;;
42186;SDS011;27858;51.414;0.018;2023-04-24T06:59:55;3.97;;;2.78;;
42186;SDS011;27858;51.414;0.018;2023-04-24T07:02:22;8.85;;;3.28;;
42186;SDS011;27858;51.414;0.018;2023-04-24T07:04:49;4.45;;;2.08;;
42186;SDS011;27858;51.414;0.018;2023-04-24T07:07:15;3.47;;;1.90;;
42186;SDS011;27858;51.414;0.018;2023-04-24T07:09:42;4.07;;;1.88;;
42186;SDS011;27858;51.414;0.018;2023-04-24T07:12:10;4.50;;;2.67;;
42186;SDS011;27858;51.414;0.018;2023-04-24T07:14:38;6.95;;;2.10;;
42186;SDS011;27858;51.414;0.018;2023-04-24T07:17:04;2.80;;;1.55;;
42186;SDS011;27858;51.414;0.018;2023-04-24T07:19:35;3.28;;;1.52;;
42186;SDS011;27858;51.414;0.018;2023-04-24T07:22:01;9.43;;;2.22;;
42186;SDS011;27858;51.414;0.018;2023-04-24T07:24:29;5.57;;;2.67;;
42186;SDS011;27858;51.414;0.018;2023-04-24T07:26:58;3.47;;;1.95;;
42186;SDS011;27858;51.414;0.018;2023-04-24T07:29:27;7.95;;;1.98;;
42186;SDS011;27858;51.414;0.018;2023-04-24T07:31:53;2.38;;;1.38;;
42186;SDS011;27858;51.414;0.018;2023-04-24T07:34:20;2.72;;;1.50;;
42186;SDS011;27858;51.414;0.018;2023-04-24T07:36:49;6.03;;;1.60;;
42186;SDS011;27858;51.414;0.018;2023-04-24T07:39:17;7.63;;;2.28;;
42186;SDS011;27858;51.414;0.018;2023-04-24T07:41:44;2.17;;;1.60;;
42186;SDS011;27858;51.414;0.018;2023-04-24T07:44:11;3.85;;;1.42;;
42186;SDS011;27858;51.414;0.018;2023-04-24T07:46:37;5.22;;;1.73;;
42186;SDS011;27858;51.414;0.018;2023-04-24T07:49:04;1.70;;;1.10;;
42186;SDS011;27858;51.414;0.018;2023-04-24T07:51:39;2.63;;;1.63;;
42186;SDS011;27858;51.414;0.018;2023-04-24T07:54:07;3.67;;;1.25;;
42186;SDS011;27858;51.414;0.018;2023-04-24T07:56:34;3.20;;;1.52;;
42186;SDS011;27858;51.414;0.018;2023-04-24T07:59:05;1.80;;;0.80;;
42186;SDS011;27858;51.414;0.018;2023-04-24T08:01:32;5.38;;;1.73;;
42186;SDS011;27858;51.414;0.018;2023-04-24T08:03:58;3.80;;;1.23;;
42186;SDS011;27858;51.414;0.018;2023-04-24T08:06:26;5.95;;;1.45;;
42186;SDS011;27858;51.414;0.018;2023-04-24T08:08:56;2.15;;;1.30;;
42186;SDS011;27858;51.414;0.018;2023-04-24T08:11:24;4.05;;;1.85;;
42186;SDS011;27858;51.414;0.018;2023-04-24T08:13:51;3.20;;;1.70;;
42186;SDS011;27858;51.414;0.018;2023-04-24T08:16:18;3.35;;;1.40;;
42186;SDS011;27858;51.414;0.018;2023-04-24T08:18:45;4.13;;;1.42;;
42186;SDS011;27858;51.414;0.018;2023-04-24T08:21:12;3.97;;;2.20;;
42186;SDS011;27858;51.414;0.018;2023-04-24T08:23:43;3.80;;;1.35;;
42186;SDS011;27858;51.414;0.018;2023-04-24T08:26:10;4.72;;;1.63;;
42186;SDS011;27858;51.414;0.018;2023-04-24T08:28:37;4.57;;;1.98;;
42186;SDS011;27858;51.414;0.018;2023-04-24T08:31:04;7.93;;;2.28;;
42186;SDS011;27858;51.414;0.018;2023-04-24T08:33:31;4.25;;;1.33;;
42186;SDS011;27858;51.414;0.018;2023-04-24T08:36:04;4.35;;;1.88;;
42186;SDS011;27858;51.414;0.018;2023-04-24T08:38:32;6.85;;;2.95;;
42186;SDS011;27858;51.414;0.018;2023-04-24T08:41:00;4.53;;;2.28;;
42186;SDS011;27858;51.414;0.018;2023-04-24T08:43:27;3.83;;;2.08;;
42186;SDS011;27858;51.414;0.018;2023-04-24T08:45:55;6.78;;;2.78;;
42186;SDS011;27858;51.414;0.018;2023-04-24T08:48:22;5.38;;;2.35;;
42186;SDS011;27858;51.414;0.018;2023-04-24T08:50:57;4.32;;;2.08;;
42186;SDS011;27858;51.414;0.018;2023-04-24T08:53:25;3.80;;;2.03;;
42186;SDS011;27858;51.414;0.018;2023-04-24T08:55:52;3.50;;;2.22;;
42186;SDS011;27858;51.414;0.018;2023-04-24T08:58:22;5.35;;;2.58;;
42186;SDS011;27858;51.414;0.018;2023-04-24T09:00:52;7.07;;;2.20;;
42186;SDS011;27858;51.414;0.018;2023-04-24T09:03:21;6.25;;;2.67;;
42186;SDS011;27858;51.414;0.018;2023-04-24T09:05:48;3.20;;;1.92;;
42186;SDS011;27858;51.414;0.018;2023-04-24T09:08:18;5.13;;;1.92;;
42186;SDS011;27858;51.414;0.018;2023-04-24T09:10:45;7.70;;;3.05;;
42186;SDS011;27858;51.414;0.018;2023-04-24T09:13:16;3.35;;;1.95;;
42186;SDS011;27858;51.414;0.018;2023-04-24T09:15:44;4.07;;;2.15;;
42186;SDS011;27858;51.414;0.018;2023-04-24T09:18:11;3.72;;;2.53;;
42186;SDS011;27858;51.414;0.018;2023-04-24T09:20:57;4.80;;;2.08;;
42186;SDS011;27858;51.414;0.018;2023-04-24T09:23:25;7.32;;;1.95;;
42186;SDS011;27858;51.414;0.018;2023-04-24T09:25:56;5.30;;;2.30;;
42186;SDS011;27858;51.414;0.018;2023-04-24T09:28:25;6.53;;;2.63;;
42186;SDS011;27858;51.414;0.018;2023-04-24T09:31:08;2.67;;;2.13;;
42186;SDS011;27858;51.414;0.018;2023-04-24T09:33:36;7.28;;;2.20;;
42186;SDS011;27858;51.414;0.018;2023-04-24T09:36:03;6.88;;;2.30;;
42186;SDS011;27858;51.414;0.018;2023-04-24T09:38:32;4.65;;;2.53;;
42186;SDS011;27858;51.414;0.018;2023-04-24T09:41:07;7.00;;;2.47;;
42186;SDS011;27858;51.414;0.018;2023-04-24T09:43:34;4.13;;;1.85;;
42186;SDS011;27858;51.414;0.018;2023-04-24T09:46:06;5.65;;;2.65;;
42186;SDS011;27858;51.414;0.018;2023-04-24T09:48:35;2.15;;;1.30;;
42186;SDS011;27858;51.414;0.018;2023-04-24T09:51:04;4.28;;;2.60;;
42186;SDS011;27858;51.414;0.018;2023-04-24T09:53:37;5.53;;;2.65;;
42186;SDS011;27858;51.414;0.018;2023-04-24T09:56:09;2.58;;;2.08;;
42186;SDS011;27858;51.414;0.018;2023-04-24T09:58:36;12.85;;;2.10;;
42186;SDS011;27858;51.414;0.018;2023-04-24T10:01:03;4.70;;;2.17;;
42186;SDS011;27858;51.414;0.018;2023-04-24T10:03:30;10.40;;;2.90;;
42186;SDS011;27858;51.414;0.018;2023-04-24T10:06:01;7.32;;;3.90;;
42186;SDS011;27858;51.414;0.018;2023-04-24T10:08:35;4.38;;;2.70;;
42186;SDS011;27858;51.414;0.018;2023-04-24T10:11:03;3.10;;;2.15;;
42186;SDS011;27858;51.414;0.018;2023-04-24T10:13:30;3.83;;;2.60;;
42186;SDS011;27858;51.414;0.018;2023-04-24T10:15:59;5.57;;;2.38;;
42186;SDS011;27858;51.414;0.018;2023-04-24T10:18:27;10.65;;;2.67;;
42186;SDS011;27858;51.414;0.018;2023-04-24T10:20:54;2.53;;;2.00;;
42186;SDS011;27858;51.414;0.018;2023-04-24T10:23:22;4.30;;;2.40;;
42186;SDS011;27858;51.414;0.018;2023-04-24T10:25:51;3.13;;;2.13;;
42186;SDS011;27858;51.414;0.018;2023-04-24T10:28:19;3.05;;;2.15;;
42186;SDS011;27858;51.414;0.018;2023-04-24T10:30:47;4.15;;;2.05;;
42186;SDS011;27858;51.414;0.018;2023-04-24T10:33:16;7.65;;;2.72;;
42186;SDS011;27858;51.414;0.018;2023-04-24T10:35:44;5.45;;;2.05;;
42186;SDS011;27858;51.414;0.018;2023-04-24T10:38:18;2.78;;;1.63;;
42186;SDS011;27858;51.414;0.018;2023-04-24T10:40:50;5.05;;;2.42;;
42186;SDS011;27858;51.414;0.018;2023-04-24T10:43:17;4.00;;;1.85;;
42186;SDS011;27858;51.414;0.018;2023-04-24T10:46:04;8.52;;;2.92;;
42186;SDS011;27858;51.414;0.018;2023-04-24T10:48:32;3.55;;;2.28;;
42186;SDS011;27858;51.414;0.018;2023-04-24T10:50:59;3.90;;;2.13;;
42186;SDS011;27858;51.414;0.018;2023-04-24T10:53:28;4.07;;;2.10;;
42186;SDS011;27858;51.414;0.018;2023-04-24T10:56:02;5.85;;;2.67;;
42186;SDS011;27858;51.414;0.018;2023-04-24T11:01:23;7.18;;;2.58;;
42186;SDS011;27858;51.414;0.018;2023-04-24T11:03:59;3.30;;;2.45;;
42186;SDS011;27858;51.414;0.018;2023-04-24T11:06:29;4.88;;;2.63;;
42186;SDS011;27858;51.414;0.018;2023-04-24T11:09:09;6.25;;;2.58;;
42186;SDS011;27858;51.414;0.018;2023-04-24T11:11:38;8.35;;;3.03;;
42186;SDS011;27858;51.414;0.018;2023-04-24T11:14:13;7.18;;;2.70;;
42186;SDS011;27858;51.414;0.018;2023-04-24T11:16:42;6.80;;;2.88;;
42186;SDS011;27858;51.414;0.018;2023-04-24T11:26:53;4.35;;;2.70;;
42186;SDS011;27858;51.414;0.018;2023-04-24T11:34:53;4.82;;;2.58;;
42186;SDS011;27858;51.414;0.018;2023-04-24T11:37:27;5.68;;;2.78;;
42186;SDS011;27858;51.414;0.018;2023-04-24T11:40:09;8.10;;;2.92;;
42186;SDS011;27858;51.414;0.018;2023-04-24T11:42:38;6.07;;;2.75;;
42186;SDS011;27858;51.414;0.018;2023-04-24T11:45:09;8.63;;;2.45;;
42186;SDS011;27858;51.414;0.018;2023-04-24T11:47:50;6.55;;;2.90;;
42186;SDS011;27858;51.414;0.018;2023-04-24T11:50:18;3.55;;;2.33;;
42186;SDS011;27858;51.414;0.018;2023-04-24T11:52:47;4.85;;;2.90;;
42186;SDS011;27858;51.414;0.018;2023-04-24T11:57:46;5.40;;;2.80;;
42186;SDS011;27858;51.414;0.018;2023-04-24T12:00:18;7.13;;;3.30;;
42186;SDS011;27858;51.414;0.018;2023-04-24T12:02:47;4.35;;;2.50;;
42186;SDS011;27858;51.414;0.018;2023-04-24T12:05:27;4.65;;;3.08;;
42186;SDS011;27858;51.414;0.018;2023-04-24T12:07:54;4.15;;;2.58;;
42186;SDS011;27858;51.414;0.018;2023-04-24T12:10:22;6.80;;;3.05;;
42186;SDS011;27858;51.414;0.018;2023-04-24T12:12:50;4.68;;;2.47;;
42186;SDS011;27858;51.414;0.018;2023-04-24T12:15:20;10.82;;;2.72;;
42186;SDS011;27858;51.414;0.018;2023-04-24T12:17:47;8.05;;;3.20;;
42186;SDS011;27858;51.414;0.018;2023-04-24T12:20:17;4.00;;;2.88;;
42186;SDS011;27858;51.414;0.018;2023-04-24T12:25:20;4.40;;;2.92;;
42186;SDS011;27858;51.414;0.018;2023-04-24T12:27:52;2.65;;;2.35;;
42186;SDS011;27858;51.414;0.018;2023-04-24T12:30:21;9.38;;;3.03;;
42186;SDS011;27858;51.414;0.018;2023-04-24T12:32:53;3.30;;;2.05;;
42186;SDS011;27858;51.414;0.018;2023-04-24T12:35:22;4.70;;;2.67;;
42186;SDS011;27858;51.414;0.018;2023-04-24T12:37:50;4.53;;;2.67;;
42186;SDS011;27858;51.414;0.018;2023-04-24T12:40:18;8.10;;;2.60;;
42186;SDS011;27858;51.414;0.018;2023-04-24T12:42:47;4.97;;;2.92;;
42186;SDS011;27858;51.414;0.018;2023-04-24T12:45:16;4.45;;;2.97;;
42186;SDS011;27858;51.414;0.018;2023-04-24T12:47:45;6.07;;;2.80;;
42186;SDS011;27858;51.414;0.018;2023-04-24T12:50:14;5.35;;;2.50;;
42186;SDS011;27858;51.414;0.018;2023-04-24T12:52:42;7.20;;;3.72;;
42186;SDS011;27858;51.414;0.018;2023-04-24T12:55:09;5.88;;;2.50;;
42186;SDS011;27858;51.414;0.018;2023-04-24T12:57:38;3.22;;;2.28;;
42186;SDS011;27858;51.414;0.018;2023-04-24T13:00:06;3.10;;;2.35;;
42186;SDS011;27858;51.414;0.018;2023-04-24T13:02:34;5.70;;;2.65;;
42186;SDS011;27858;51.414;0.018;2023-04-24T13:05:02;2.25;;;1.95;;
42186;SDS011;27858;51.414;0.018;2023-04-24T13:07:30;8.52;;;2.55;;
42186;SDS011;27858;51.414;0.018;2023-04-24T13:09:56;3.25;;;1.85;;
42186;SDS011;27858;51.414;0.018;2023-04-24T13:12:24;5.97;;;3.15;;
42186;SDS011;27858;51.414;0.018;2023-04-24T13:14:52;4.05;;;2.60;;
42186;SDS011;27858;51.414;0.018;2023-04-24T13:17:19;5.38;;;2.17;;
42186;SDS011;27858;51.414;0.018;2023-04-24T13:19:46;8.77;;;2.38;;
42186;SDS011;27858;51.414;0.018;2023-04-24T13:22:15;3.28;;;2.00;;
42186;SDS011;27858;51.414;0.018;2023-04-24T13:24:43;5.32;;;1.90;;
42186;SDS011;27858;51.414;0.018;2023-04-24T13:27:10;3.22;;;2.45;;
42186;SDS011;27858;51.414;0.018;2023-04-24T13:29:37;3.53;;;2.70;;
42186;SDS011;27858;51.414;0.018;2023-04-24T13:32:04;3.17;;;2.35;;
42186;SDS011;27858;51.414;0.018;2023-04-24T13:34:32;5.60;;;2.20;;
42186;SDS011;27858;51.414;0.018;2023-04-24T13:37:01;3.55;;;2.65;;
42186;SDS011;27858;51.414;0.018;2023-04-24T13:39:30;2.85;;;1.67;;
42186;SDS011;27858;51.414;0.018;2023-04-24T13:41:57;4.75;;;2.55;;
42186;SDS011;27858;51.414;0.018;2023-04-24T13:44:29;6.32;;;2.38;;
42186;SDS011;27858;51.414;0.018;2023-04-24T13:46:56;3.88;;;1.95;;
42186;SDS011;27858;51.414;0.018;2023-04-24T13:49:24;5.05;;;2.72;;
42186;SDS011;27858;51.414;0.018;2023-04-24T13:51:51;3.92;;;2.03;;
42186;SDS011;27858;51.414;0.018;2023-04-24T13:54:20;3.05;;;2.10;;
42186;SDS011;27858;51.414;0.018;2023-04-24T13:56:48;5.72;;;2.50;;
42186;SDS011;27858;51.414;0.018;2023-04-24T13:59:15;2.38;;;1.88;;
42186;SDS011;27858;51.414;0.018;2023-04-24T14:01:42;4.07;;;2.45;;
42186;SDS011;27858;51.414;0.018;2023-04-24T14:04:11;2.50;;;2.30;;
42186;SDS011;27858;51.414;0.018;2023-04-24T14:06:38;4.63;;;2.92;;
42186;SDS011;27858;51.414;0.018;2023-04-24T14:09:05;10.95;;;2.95;;
42186;SDS011;27858;51.414;0.018;2023-04-24T14:11:33;5.35;;;2.40;;
42186;SDS011;27858;51.414;0.018;2023-04-24T14:14:00;3.13;;;1.95;;
42186;SDS011;27858;51.414;0.018;2023-04-24T14:16:27;7.78;;;3.03;;
42186;SDS011;27858;51.414;0.018;2023-04-24T14:18:55;2.63;;;2.33;;
42186;SDS011;27858;51.414;0.018;2023-04-24T14:21:22;5.20;;;2.53;;
42186;SDS011;27858;51.414;0.018;2023-04-24T14:23:49;3.10;;;1.98;;
42186;SDS011;27858;51.414;0.018;2023-04-24T14:26:16;3.10;;;2.08;;
42186;SDS011;27858;51.414;0.018;2023-04-24T14:28:43;3.35;;;2.65;;
42186;SDS011;27858;51.414;0.018;2023-04-24T14:31:10;4.55;;;2.35;;
42186;SDS011;27858;51.414;0.018;2023-04-24T14:33:37;3.03;;;1.98;;
42186;SDS011;27858;51.414;0.018;2023-04-24T14:36:04;5.53;;;2.72;;
42186;SDS011;27858;51.414;0.018;2023-04-24T14:38:31;3.08;;;2.22;;
42186;SDS011;27858;51.414;0.018;2023-04-24T14:40:58;5.97;;;2.45;;
42186;SDS011;27858;51.414;0.018;2023-04-24T14:43:30;5.43;;;2.30;;
42186;SDS011;27858;51.414;0.018;2023-04-24T14:45:57;5.35;;;2.38;;
42186;SDS011;27858;51.414;0.018;2023-04-24T14:48:23;4.18;;;2.45;;
42186;SDS011;27858;51.414;0.018;2023-04-24T14:50:51;3.13;;;1.83;;
42186;SDS011;27858;51.414;0.018;2023-04-24T14:53:18;3.28;;;2.30;;
42186;SDS011;27858;51.414;0.018;2023-04-24T14:55:44;8.68;;;3.25;;
42186;SDS011;27858;51.414;0.018;2023-04-24T14:58:11;2.85;;;2.00;;
42186;SDS011;27858;51.414;0.018;2023-04-24T15:00:38;8.15;;;1.98;;
42186;SDS011;27858;51.414;0.018;2023-04-24T15:03:05;2.42;;;1.92;;
42186;SDS011;27858;51.414;0.018;2023-04-24T15:05:32;5.07;;;2.53;;
42186;SDS011;27858;51.414;0.018;2023-04-24T15:08:00;4.03;;;2.83;;
42186;SDS011;27858;51.414;0.018;2023-04-24T15:10:26;5.50;;;2.03;;
42186;SDS011;27858;51.414;0.018;2023-04-24T15:12:55;6.85;;;2.28;;
42186;SDS011;27858;51.414;0.018;2023-04-24T15:15:22;5.35;;;2.25;;
42186;SDS011;27858;51.414;0.018;2023-04-24T15:17:48;3.60;;;1.83;;
42186;SDS011;27858;51.414;0.018;2023-04-24T15:20:15;2.65;;;1.75;;
42186;SDS011;27858;51.414;0.018;2023-04-24T15:22:42;4.13;;;2.42;;
42186;SDS011;27858;51.414;0.018;2023-04-24T15:25:09;1.65;;;1.40;;
42186;SDS011;27858;51.414;0.018;2023-04-24T15:27:43;2.25;;;1.00;;
42186;SDS011;27858;51.414;0.018;2023-04-24T15:30:11;1.65;;;1.10;;
42186;SDS011;27858;51.414;0.018;2023-04-24T15:32:39;1.25;;;1.08;;
42186;SDS011;27858;51.414;0.018;2023-04-24T15:35:06;1.52;;;1.35;;
42186;SDS011;27858;51.414;0.018;2023-04-24T15:37:36;5.93;;;1.45;;
42186;SDS011;27858;51.414;0.018;2023-04-24T15:40:04;3.95;;;2.13;;
42186;SDS011;27858;51.414;0.018;2023-04-24T15:42:34;2.00;;;1.77;;
42186;SDS011;27858;51.414;0.018;2023-04-24T15:45:01;4.10;;;1.70;;
42186;SDS011;27858;51.414;0.018;2023-04-24T15:47:27;2.05;;;1.85;;
42186;SDS011;27858;51.414;0.018;2023-04-24T15:49:54;2.15;;;1.77;;
42186;SDS011;27858;51.414;0.018;2023-04-24T15:52:21;2.78;;;2.00;;
42186;SDS011;27858;51.414;0.018;2023-04-24T15:54:48;3.22;;;2.42;;
42186;SDS011;27858;51.414;0.018;2023-04-24T15:57:15;3.22;;;2.03;;
42186;SDS011;27858;51.414;0.018;2023-04-24T15:59:42;4.05;;;2.60;;
42186;SDS011;27858;51.414;0.018;2023-04-24T16:02:11;3.03;;;2.17;;
42186;SDS011;27858;51.414;0.018;2023-04-24T16:04:48;9.98;;;2.72;;
42186;SDS011;27858;51.414;0.018;2023-04-24T16:07:16;2.40;;;2.20;;
42186;SDS011;27858;51.414;0.018;2023-04-24T16:09:43;3.67;;;2.17;;
42186;SDS011;27858;51.414;0.018;2023-04-24T16:12:10;3.13;;;1.95;;
42186;SDS011;27858;51.414;0.018;2023-04-24T16:14:38;1.95;;;1.60;;
42186;SDS011;27858;51.414;0.018;2023-04-24T16:17:05;2.28;;;1.77;;
42186;SDS011;27858;51.414;0.018;2023-04-24T16:19:32;3.05;;;2.15;;
42186;SDS011;27858;51.414;0.018;2023-04-24T16:21:59;2.03;;;1.58;;
42186;SDS011;27858;51.414;0.018;2023-04-24T16:24:26;1.40;;;1.30;;
42186;SDS011;27858;51.414;0.018;2023-04-24T16:26:54;3.42;;;2.10;;
42186;SDS011;27858;51.414;0.018;2023-04-24T16:29:21;5.88;;;2.38;;
42186;SDS011;27858;51.414;0.018;2023-04-24T16:31:48;1.70;;;1.60;;
42186;SDS011;27858;51.414;0.018;2023-04-24T16:34:15;3.38;;;2.53;;
42186;SDS011;27858;51.414;0.018;2023-04-24T16:36:42;2.55;;;2.08;;
42186;SDS011;27858;51.414;0.018;2023-04-24T16:39:10;2.63;;;2.13;;
42186;SDS011;27858;51.414;0.018;2023-04-24T16:41:38;4.78;;;2.58;;
42186;SDS011;27858;51.414;0.018;2023-04-24T16:44:05;2.88;;;2.00;;
42186;SDS011;27858;51.414;0.018;2023-04-24T16:46:32;4.00;;;2.65;;
42186;SDS011;27858;51.414;0.018;2023-04-24T16:48:59;4.07;;;1.98;;
42186;SDS011;27858;51.414;0.018;2023-04-24T16:51:26;3.38;;;2.28;;
42186;SDS011;27858;51.414;0.018;2023-04-24T16:53:54;2.47;;;1.90;;
42186;SDS011;27858;51.414;0.018;2023-04-24T16:56:21;2.63;;;1.95;;
42186;SDS011;27858;51.414;0.018;2023-04-24T16:58:47;3.28;;;1.63;;
42186;SDS011;27858;51.414;0.018;2023-04-24T17:01:15;2.78;;;2.40;;
42186;SDS011;27858;51.414;0.018;2023-04-24T17:03:42;4.63;;;2.03;;
42186;SDS011;27858;51.414;0.018;2023-04-24T17:06:09;3.28;;;1.88;;
42186;SDS011;27858;51.414;0.018;2023-04-24T17:08:36;2.38;;;1.25;;
42186;SDS011;27858;51.414;0.018;2023-04-24T17:11:03;1.85;;;1.55;;
42186;SDS011;27858;51.414;0.018;2023-04-24T17:13:29;4.70;;;2.65;;
42186;SDS011;27858;51.414;0.018;2023-04-24T17:15:56;2.40;;;2.00;;
42186;SDS011;27858;51.414;0.018;2023-04-24T17:18:23;4.00;;;1.73;;
42186;SDS011;27858;51.414;0.018;2023-04-24T17:20:50;2.40;;;2.00;;
42186;SDS011;27858;51.414;0.018;2023-04-24T17:23:17;3.60;;;2.20;;
42186;SDS011;27858;51.414;0.018;2023-04-24T17:25:45;3.22;;;2.00;;
42186;SDS011;27858;51.414;0.018;2023-04-24T17:28:14;4.78;;;2.45;;
42186;SDS011;27858;51.414;0.018;2023-04-24T17:30:56;2.38;;;1.63;;
42186;SDS011;27858;51.414;0.018;2023-04-24T17:33:24;2.22;;;1.80;;
42186;SDS011;27858;51.414;0.018;2023-04-24T17:35:56;5.72;;;2.28;;
42186;SDS011;27858;51.414;0.018;2023-04-24T17:38:23;4.68;;;2.45;;
42186;SDS011;27858;51.414;0.018;2023-04-24T17:40:50;2.90;;;2.30;;
42186;SDS011;27858;51.414;0.018;2023-04-24T17:43:21;3.42;;;2.50;;
42186;SDS011;27858;51.414;0.018;2023-04-24T17:45:49;4.97;;;2.38;;
42186;SDS011;27858;51.414;0.018;2023-04-24T17:48:17;2.85;;;2.30;;
42186;SDS011;27858;51.414;0.018;2023-04-24T17:50:45;4.93;;;2.88;;
42186;SDS011;27858;51.414;0.018;2023-04-24T17:53:11;4.90;;;2.60;;
42186;SDS011;27858;51.414;0.018;2023-04-24T17:55:39;5.07;;;3.00;;
42186;SDS011;27858;51.414;0.018;2023-04-24T17:58:08;12.23;;;2.95;;
42186;SDS011;27858;51.414;0.018;2023-04-24T18:00:36;7.25;;;2.75;;
42186;SDS011;27858;51.414;0.018;2023-04-24T18:03:04;4.75;;;2.90;;
42186;SDS011;27858;51.414;0.018;2023-04-24T18:05:33;6.47;;;3.45;;
42186;SDS011;27858;51.414;0.018;2023-04-24T18:08:03;8.85;;;3.50;;
42186;SDS011;27858;51.414;0.018;2023-04-24T18:10:31;5.55;;;3.30;;
42186;SDS011;27858;51.414;0.018;2023-04-24T18:13:00;5.25;;;2.63;;
42186;SDS011;27858;51.414;0.018;2023-04-24T18:15:28;7.50;;;4.00;;
42186;SDS011;27858;51.414;0.018;2023-04-24T18:17:54;7.63;;;2.38;;
42186;SDS011;27858;51.414;0.018;2023-04-24T18:20:21;7.15;;;3.53;;
42186;SDS011;27858;51.414;0.018;2023-04-24T18:22:48;5.95;;;3.20;;
42186;SDS011;27858;51.414;0.018;2023-04-24T18:25:15;5.88;;;2.92;;
42186;SDS011;27858;51.414;0.018;2023-04-24T18:27:42;10.23;;;3.78;;
42186;SDS011;27858;51.414;0.018;2023-04-24T18:30:09;6.53;;;3.55;;
42186;SDS011;27858;51.414;0.018;2023-04-24T18:32:40;14.77;;;4.72;;
42186;SDS011;27858;51.414;0.018;2023-04-24T18:35:07;11.15;;;3.72;;
42186;SDS011;27858;51.414;0.018;2023-04-24T18:37:34;11.55;;;3.92;;
42186;SDS011;27858;51.414;0.018;2023-04-24T18:40:01;8.80;;;4.10;;
42186;SDS011;27858;51.414;0.018;2023-04-24T18:42:28;11.35;;;3.38;;
42186;SDS011;27858;51.414;0.018;2023-04-24T18:44:55;8.82;;;3.92;;
42186;SDS011;27858;51.414;0.018;2023-04-24T18:47:26;8.02;;;3.92;;
42186;SDS011;27858;51.414;0.018;2023-04-24T18:49:54;8.65;;;3.65;;
42186;SDS011;27858;51.414;0.018;2023-04-24T18:52:21;6.85;;;3.85;;
42186;SDS011;27858;51.414;0.018;2023-04-24T18:54:49;7.55;;;3.65;;
42186;SDS011;27858;51.414;0.018;2023-04-24T18:57:15;5.68;;;3.58;;
42186;SDS011;27858;51.414;0.018;2023-04-24T18:59:42;8.27;;;3.67;;
42186;SDS011;27858;51.414;0.018;2023-04-24T19:02:09;8.25;;;3.97;;
42186;SDS011;27858;51.414;0.018;2023-04-24T19:04:36;13.68;;;3.80;;
42186;SDS011;27858;51.414;0.018;2023-04-24T19:07:03;10.40;;;3.72;;
42186;SDS011;27858;51.414;0.018;2023-04-24T19:09:30;7.47;;;3.30;;
42186;SDS011;27858;51.414;0.018;2023-04-24T19:11:57;8.05;;;3.60;;
42186;SDS011;27858;51.414;0.018;2023-04-24T19:14:26;8.80;;;3.90;;